Silver Shadow — C6FN6 — position and weather

sailwx.info

Track history (hours):
 
Tides and Currents Weather Stations Pressure Air Temp Water Temp Dewpoint Dewpoint Depression Visibility Wind Speed Wind Dir Waves Ship Positions

Silver Shadow

Operator: V Ships Leisure SAM

Last reported at 2015-Feb-19 22:33 UTC. Time now 2015-Mar-05 12:04 UTC.
Position S 13°04' W 038°20'.
Warning: this ship's position is 13 days out of date.

Length 186 m; draft 6.1 m.

Type: Passenger vessel. MMSI: 308628000.

Date/timePositionNaut miles runAvg speedWind from/ knotsBaromVisibWave heightAir tempDewpointWater temp
2015-Feb-19 22:33S 13°04' W 038°20'1413.9
2015-Feb-19 21:34S 13°05' W 038°34'7 6.9
2015-Feb-19 20:32S 12°58' W 038°31'0 0.0
2015-Feb-19 19:32S 12°58' W 038°31'0 0.0
2015-Feb-19 18:32S 12°58' W 038°31'0 0.0
2015-Feb-19 17:32S 12°58' W 038°31'0 0.0
2015-Feb-19 16:32S 12°58' W 038°31'0 0.0
2015-Feb-19 15:32S 12°58' W 038°31'0 0.0
2015-Feb-19 14:32S 12°58' W 038°31'0 0.0
2015-Feb-19 13:32S 12°58' W 038°31'0 0.0
2015-Feb-19 12:32S 12°58' W 038°31'0 0.0
2015-Feb-19 11:32S 12°58' W 038°31'1 0.8
2015-Feb-19 10:33S 12°58' W 038°31'7 7.0
2015-Feb-19 09:33S 13°04' W 038°34'1010.4
2015-Feb-19 08:33S 13°14' W 038°34'  
2015-Feb-13 19:33S 23°59' W 046°17'2 2.2
2015-Feb-13 18:29S 23°57' W 046°19'0 0.0
2015-Feb-13 17:29S 23°57' W 046°19'0 0.0
2015-Feb-13 16:29S 23°57' W 046°19'0 0.0
2015-Feb-13 15:29S 23°57' W 046°19'0 0.0
2015-Feb-13 14:17S 23°57' W 046°19'0 0.0
2015-Feb-13 13:32S 23°57' W 046°19'0 0.0
2015-Feb-13 12:32S 23°57' W 046°19'0 0.0
2015-Feb-13 11:17S 23°57' W 046°19'0 0.0
2015-Feb-13 10:29S 23°57' W 046°19'4 3.9
2015-Feb-13 09:33S 24°00' W 046°20'11 9.9
2015-Feb-13 08:28S 24°11' W 046°24'81216.3
2015-Feb-11 06:31S 35°05' W 055°37'9713.6
2015-Feb-10 23:22S 34°46' W 057°33'1214.4
2015-Feb-10 22:34S 34°44' W 057°46'3110.1
2015-Feb-10 19:32S 34°35' W 058°22'0 0.0
2015-Feb-10 18:33S 34°35' W 058°22'0 0.0
2015-Feb-10 17:33S 34°35' W 058°22'0 0.0
2015-Feb-10 16:33S 34°35' W 058°22'0 0.0
2015-Feb-10 15:32S 34°35' W 058°22'0 0.0
2015-Feb-10 14:33S 34°35' W 058°22'0 0.0
2015-Feb-10 13:33S 34°35' W 058°22'0 0.0
2015-Feb-10 12:33S 34°35' W 058°22'0 0.0
2015-Feb-10 11:33S 34°35' W 058°22'0 0.3
2015-Feb-10 10:33S 34°35' W 058°22'1010.4
2015-Feb-10 09:34S 34°37' W 058°09'9 8.9
2015-Feb-10 08:33S 34°41' W 057°59'1110.7
2015-Feb-10 07:33S 34°45' W 057°47'1312.6
2015-Feb-10 06:32S 34°46' W 057°32'10013.7
2015-Feb-09 23:14S 35°03' W 055°31'  
Track history (hours):
 
Tides and Currents Weather Stations Pressure Air Temp Water Temp Dewpoint Dewpoint Depression Visibility Wind Speed Wind Dir Waves Ship Positions

Silver Shadow

Operator: V Ships Leisure SAM

Last reported at 2015-Feb-19 22:33 UTC. Time now 2015-Mar-05 12:04 UTC.
Position S 13°04' W 038°20'.
Warning: this ship's position is 13 days out of date.

Length 186 m; draft 6.1 m.

Type: Passenger vessel. MMSI: 308628000.

Date/timePositionNaut miles runAvg speedWind from/ knotsBaromVisibWave heightAir tempDewpointWater temp
2015-Feb-19 22:33S 13°04' W 038°20'1413.9
2015-Feb-19 21:34S 13°05' W 038°34'7 6.9
2015-Feb-19 20:32S 12°58' W 038°31'0 0.0
2015-Feb-19 19:32S 12°58' W 038°31'0 0.0
2015-Feb-19 18:32S 12°58' W 038°31'0 0.0
2015-Feb-19 17:32S 12°58' W 038°31'0 0.0
2015-Feb-19 16:32S 12°58' W 038°31'0 0.0
2015-Feb-19 15:32S 12°58' W 038°31'0 0.0
2015-Feb-19 14:32S 12°58' W 038°31'0 0.0
2015-Feb-19 13:32S 12°58' W 038°31'0 0.0
2015-Feb-19 12:32S 12°58' W 038°31'0 0.0
2015-Feb-19 11:32S 12°58' W 038°31'1 0.8
2015-Feb-19 10:33S 12°58' W 038°31'7 7.0
2015-Feb-19 09:33S 13°04' W 038°34'1010.4
2015-Feb-19 08:33S 13°14' W 038°34'  
2015-Feb-13 19:33S 23°59' W 046°17'2 2.2
2015-Feb-13 18:29S 23°57' W 046°19'0 0.0
2015-Feb-13 17:29S 23°57' W 046°19'0 0.0
2015-Feb-13 16:29S 23°57' W 046°19'0 0.0
2015-Feb-13 15:29S 23°57' W 046°19'0 0.0
2015-Feb-13 14:17S 23°57' W 046°19'0 0.0
2015-Feb-13 13:32S 23°57' W 046°19'0 0.0
2015-Feb-13 12:32S 23°57' W 046°19'0 0.0
2015-Feb-13 11:17S 23°57' W 046°19'0 0.0
2015-Feb-13 10:29S 23°57' W 046°19'4 3.9
2015-Feb-13 09:33S 24°00' W 046°20'11 9.9
2015-Feb-13 08:28S 24°11' W 046°24'81216.3
2015-Feb-11 06:31S 35°05' W 055°37'9713.6
2015-Feb-10 23:22S 34°46' W 057°33'1214.4
2015-Feb-10 22:34S 34°44' W 057°46'3110.1
2015-Feb-10 19:32S 34°35' W 058°22'0 0.0
2015-Feb-10 18:33S 34°35' W 058°22'0 0.0
2015-Feb-10 17:33S 34°35' W 058°22'0 0.0
2015-Feb-10 16:33S 34°35' W 058°22'0 0.0
2015-Feb-10 15:32S 34°35' W 058°22'0 0.0
2015-Feb-10 14:33S 34°35' W 058°22'0 0.0
2015-Feb-10 13:33S 34°35' W 058°22'0 0.0
2015-Feb-10 12:33S 34°35' W 058°22'0 0.0
2015-Feb-10 11:33S 34°35' W 058°22'0 0.3
2015-Feb-10 10:33S 34°35' W 058°22'1010.4
2015-Feb-10 09:34S 34°37' W 058°09'9 8.9
2015-Feb-10 08:33S 34°41' W 057°59'1110.7
2015-Feb-10 07:33S 34°45' W 057°47'1312.6
2015-Feb-10 06:32S 34°46' W 057°32'10013.7
2015-Feb-09 23:14S 35°03' W 055°31'  

Dump ship's entire track history